Terminal Aerodrome Forecast
Issued by NWS Grand Forks, ND

Home | Current Version | Previous Version | Graphics & Text | Print | Product List | Glossary On
Versions: 1 2 3 4 5 6 7 8 9 10 11 12 13 14 15 16 17 18 19 20 21
858
FTUS43 KFGF 151722
TAFFAR
TAF
KFAR 151722Z 1518/1618 15009KT P6SM BKN200
     FM160400 12006KT P6SM VCSH OVC070
     FM160600 12007KT P6SM -SHRA OVC050
     FM161100 11005KT P6SM VCSH OVC008=

USA.gov is the U.S. government's official web portal to all federal, state and local government web resources and services.